createdAt,value
2018-09-09T00:01:12.250Z,78.34
2018-09-09T00:04:17.176Z,78.02
2018-09-09T00:07:21.945Z,78.04
2018-09-09T00:10:26.882Z,78.41
2018-09-09T00:13:31.966Z,78.34
2018-09-09T00:16:36.774Z,77.83
2018-09-09T00:19:41.615Z,79.02
2018-09-09T00:22:46.781Z,77.99
2018-09-09T00:25:51.690Z,78.08
2018-09-09T00:28:56.555Z,79.05
2018-09-09T00:32:01.633Z,79.53
2018-09-09T00:35:06.761Z,79.48
2018-09-09T00:38:11.593Z,78.31
2018-09-09T00:41:16.453Z,78.67
2018-09-09T00:44:21.421Z,78.99
2018-09-09T00:47:26.275Z,78.39
2018-09-09T00:50:36.367Z,78.93
2018-09-09T00:53:45.044Z,78.49
2018-09-09T00:56:49.912Z,78.65
2018-09-09T00:59:54.948Z,79.84
2018-09-09T01:02:59.825Z,80.23
2018-09-09T01:06:05.225Z,79.51
2018-09-09T01:09:11.392Z,78.83
2018-09-09T01:12:16.359Z,80.42
2018-09-09T01:15:21.252Z,81.32
2018-09-09T01:18:26.057Z,82.16
2018-09-09T01:21:31.005Z,82.81
2018-09-09T01:24:35.870Z,82.62
2018-09-09T01:27:40.799Z,83.73
2018-09-09T01:30:45.657Z,83.54
2018-09-09T01:33:50.435Z,84.20
2018-09-09T01:36:55.221Z,84.27
2018-09-09T01:40:00.136Z,84.95
2018-09-09T01:43:05.008Z,85.01
2018-09-09T01:46:09.898Z,84.87
2018-09-09T01:49:14.749Z,84.98
2018-09-09T01:52:19.660Z,85.21
2018-09-09T01:55:24.525Z,85.44
2018-09-09T01:58:29.474Z,86.18
2018-09-09T02:01:34.463Z,86.57
2018-09-09T02:04:39.235Z,86.60
2018-09-09T02:07:44.110Z,86.45
2018-09-09T02:10:49.049Z,86.49
2018-09-09T02:13:53.795Z,86.59
2018-09-09T02:16:58.812Z,87.82
2018-09-09T02:20:03.636Z,87.93
2018-09-09T02:23:08.734Z,87.34
2018-09-09T02:26:13.734Z,87.68
2018-09-09T02:29:18.659Z,88.03
2018-09-09T02:32:23.570Z,87.43
2018-09-09T02:35:28.547Z,87.88
2018-09-09T02:38:33.314Z,88.09
2018-09-09T02:41:39.000Z,87.41
2018-09-09T02:44:43.860Z,87.71
2018-09-09T02:47:48.696Z,87.71
2018-09-09T02:50:53.593Z,87.67
2018-09-09T02:53:58.426Z,87.50
2018-09-09T02:57:03.240Z,87.55
2018-09-09T03:00:08.181Z,87.15
2018-09-09T03:03:12.973Z,85.97
2018-09-09T03:06:17.881Z,86.84
2018-09-09T03:09:22.670Z,87.36
2018-09-09T03:12:27.546Z,87.91
2018-09-09T03:15:32.419Z,87.34
2018-09-09T03:18:37.556Z,87.92
2018-09-09T03:21:42.375Z,87.43
2018-09-09T03:24:47.250Z,87.28
2018-09-09T03:27:52.164Z,88.43
2018-09-09T03:30:57.055Z,88.80
2018-09-09T03:34:01.787Z,88.17
2018-09-09T03:37:07.080Z,87.97
2018-09-09T03:40:12.018Z,87.54
2018-09-09T03:43:17.042Z,86.71
2018-09-09T03:46:21.876Z,87.32
2018-09-09T03:49:26.750Z,87.70
2018-09-09T03:52:31.603Z,87.62
2018-09-09T03:55:36.812Z,88.42
2018-09-09T03:58:41.644Z,88.45
2018-09-09T04:01:46.506Z,88.35
2018-09-09T04:04:51.331Z,88.27
2018-09-09T04:07:56.209Z,87.87
2018-09-09T04:11:05.181Z,88.14
2018-09-09T04:14:10.081Z,88.53
2018-09-09T04:17:14.874Z,87.71
2018-09-09T04:20:19.788Z,87.59
2018-09-09T04:23:24.527Z,87.70
2018-09-09T04:26:29.453Z,87.61
2018-09-09T04:29:34.248Z,87.75
2018-09-09T04:32:39.220Z,88.48
2018-09-09T04:35:44.243Z,88.13
2018-09-09T04:38:49.108Z,89.10
2018-09-09T04:41:54.094Z,89.18
2018-09-09T04:44:58.912Z,88.20
2018-09-09T04:48:03.849Z,87.98
2018-09-09T04:51:09.069Z,87.58
2018-09-09T04:54:14.064Z,87.40
2018-09-09T04:57:18.861Z,86.65
2018-09-09T05:00:23.689Z,86.97
2018-09-09T05:03:28.629Z,87.26
2018-09-09T05:06:33.430Z,86.92
2018-09-09T05:09:38.384Z,86.74
2018-09-09T05:12:43.151Z,85.87
2018-09-09T05:15:48.092Z,85.06
2018-09-09T05:18:52.890Z,84.21
2018-09-09T05:21:58.039Z,83.19
2018-09-09T05:25:03.025Z,83.92
2018-09-09T05:28:08.003Z,82.77
2018-09-09T05:31:12.863Z,83.83
2018-09-09T05:34:17.744Z,83.30
2018-09-09T05:37:22.648Z,83.43
2018-09-09T05:40:27.530Z,83.36
2018-09-09T05:43:32.362Z,82.68
2018-09-09T05:46:37.303Z,82.92
2018-09-09T05:49:42.054Z,82.76
2018-09-09T05:52:47.004Z,82.32
2018-09-09T05:55:51.903Z,82.04
2018-09-09T05:58:56.956Z,83.01
2018-09-09T06:02:01.822Z,83.44
2018-09-09T06:05:07.119Z,82.57
2018-09-09T06:08:11.952Z,81.41
2018-09-09T06:11:16.851Z,81.58
2018-09-09T06:14:21.648Z,81.50
2018-09-09T06:17:26.557Z,82.49
2018-09-09T06:20:31.499Z,82.33
2018-09-09T06:23:36.344Z,82.67
2018-09-09T06:26:41.137Z,81.63
2018-09-09T06:29:45.965Z,80.63
2018-09-09T06:32:50.919Z,81.42
2018-09-09T06:35:55.892Z,81.26
2018-09-09T06:39:00.869Z,80.60
2018-09-09T06:42:05.797Z,79.26
2018-09-09T06:45:10.688Z,78.75
2018-09-09T06:48:15.468Z,78.12
2018-09-09T06:51:20.388Z,76.79
2018-09-09T06:54:25.257Z,74.29
2018-09-09T06:57:30.185Z,71.06
2018-09-09T07:00:35.277Z,67.11
2018-09-09T07:03:40.209Z,66.52
2018-09-09T07:06:45.033Z,68.85
2018-09-09T07:09:49.878Z,69.82
2018-09-09T07:12:54.789Z,70.78
2018-09-09T07:15:59.767Z,71.59
2018-09-09T07:19:04.708Z,71.54
2018-09-09T07:22:09.580Z,70.04
2018-09-09T07:25:14.434Z,70.12
2018-09-09T07:28:19.280Z,70.45
2018-09-09T07:31:24.188Z,69.90
2018-09-09T07:34:29.042Z,69.75
2018-09-09T07:37:33.951Z,70.41
2018-09-09T07:40:38.894Z,70.32
2018-09-09T07:43:43.788Z,68.91
2018-09-09T07:46:48.656Z,68.66
2018-09-09T07:49:53.597Z,67.34
2018-09-09T07:52:58.466Z,65.42
2018-09-09T07:56:03.355Z,64.89
2018-09-09T07:59:08.331Z,66.40
2018-09-09T08:02:13.218Z,66.17
2018-09-09T08:05:18.103Z,64.70
2018-09-09T08:08:22.961Z,64.64
2018-09-09T08:11:33.004Z,64.08
2018-09-09T08:14:37.880Z,62.97
2018-09-09T08:17:42.879Z,64.69
2018-09-09T08:20:47.882Z,63.80
2018-09-09T08:23:52.804Z,62.30
2018-09-09T08:26:57.744Z,63.72
2018-09-09T08:30:02.681Z,64.29
2018-09-09T08:33:07.544Z,61.43
2018-09-09T08:36:12.664Z,59.65
2018-09-09T08:39:17.522Z,61.15
2018-09-09T08:42:22.369Z,60.10
2018-09-09T08:45:27.319Z,59.75
2018-09-09T08:48:32.105Z,57.56
2018-09-09T08:51:37.045Z,56.59
2018-09-09T08:54:41.952Z,56.33
2018-09-09T08:57:46.836Z,56.56
2018-09-09T09:00:51.816Z,55.17
2018-09-09T09:03:56.637Z,55.19
2018-09-09T09:07:01.577Z,55.72
2018-09-09T09:10:06.755Z,56.71
2018-09-09T09:13:11.916Z,55.15
2018-09-09T09:16:16.800Z,53.91
2018-09-09T09:19:21.635Z,54.44
2018-09-09T09:22:26.447Z,53.75
2018-09-09T09:25:31.649Z,54.12
2018-09-09T09:28:36.537Z,54.04
2018-09-09T09:31:41.389Z,51.75
2018-09-09T09:34:46.221Z,50.29
2018-09-09T09:37:51.155Z,50.46
2018-09-09T09:40:56.233Z,48.47
2018-09-09T09:44:01.116Z,48.97
2018-09-09T09:47:06.097Z,50.14
2018-09-09T09:50:11.068Z,49.40
2018-09-09T09:53:16.179Z,48.89
2018-09-09T09:56:21.047Z,48.38
2018-09-09T09:59:25.936Z,49.49
2018-09-09T10:02:30.863Z,48.77
2018-09-09T10:05:36.422Z,47.37
2018-09-09T10:08:41.276Z,46.17
2018-09-09T10:11:46.094Z,46.38
2018-09-09T10:14:51.000Z,44.73
2018-09-09T10:17:55.920Z,44.41
2018-09-09T10:21:00.872Z,43.88
2018-09-09T10:24:05.844Z,45.40
2018-09-09T10:27:10.749Z,45.00
2018-09-09T10:30:15.628Z,44.88
2018-09-09T10:33:20.555Z,43.29
2018-09-09T10:36:25.522Z,43.31
2018-09-09T10:39:30.325Z,42.31
2018-09-09T10:42:35.315Z,41.69
2018-09-09T10:45:40.185Z,40.96
2018-09-09T10:48:45.933Z,40.75
2018-09-09T10:51:50.827Z,41.14
2018-09-09T10:54:55.853Z,40.10
2018-09-09T10:58:00.795Z,40.34
2018-09-09T11:01:05.922Z,39.97
2018-09-09T11:04:10.841Z,38.92
2018-09-09T11:07:15.774Z,40.37
2018-09-09T11:10:20.593Z,39.00
2018-09-09T11:13:25.456Z,39.95
2018-09-09T11:16:30.327Z,38.73
2018-09-09T11:19:35.160Z,39.11
2018-09-09T11:22:40.049Z,38.99
2018-09-09T11:25:44.933Z,38.59
2018-09-09T11:28:49.863Z,39.19
2018-09-09T11:31:54.765Z,39.34
2018-09-09T11:34:59.692Z,39.70
2018-09-09T11:38:04.736Z,38.72
2018-09-09T11:41:09.611Z,38.67
2018-09-09T11:44:14.597Z,36.82
2018-09-09T11:47:19.553Z,36.96
2018-09-09T11:50:24.472Z,37.03
2018-09-09T11:53:29.423Z,37.50
2018-09-09T11:56:34.502Z,35.76
2018-09-09T11:59:39.487Z,37.20
2018-09-09T12:02:44.622Z,36.35
2018-09-09T12:05:49.589Z,36.13
2018-09-09T12:08:54.486Z,35.82
2018-09-09T12:11:59.583Z,34.70
2018-09-09T12:15:04.485Z,35.29
2018-09-09T12:18:09.610Z,36.49
2018-09-09T12:21:14.613Z,36.85
2018-09-09T12:24:19.505Z,36.36
2018-09-09T12:27:24.415Z,35.35
2018-09-09T12:30:29.333Z,35.97
2018-09-09T12:33:34.261Z,35.47
2018-09-09T12:36:39.271Z,35.99
2018-09-09T12:39:44.419Z,36.28
2018-09-09T12:42:53.631Z,36.79
2018-09-09T12:46:03.551Z,35.12
2018-09-09T12:49:08.976Z,35.54
2018-09-09T12:52:13.825Z,36.90
2018-09-09T12:55:18.750Z,35.23
2018-09-09T12:58:23.688Z,34.57
2018-09-09T13:01:29.005Z,34.30
2018-09-09T13:04:34.173Z,35.93
2018-09-09T13:07:39.156Z,35.70
2018-09-09T13:10:44.160Z,36.92
2018-09-09T13:13:49.005Z,37.81
2018-09-09T13:16:53.922Z,36.71
2018-09-09T13:19:58.770Z,37.00
2018-09-09T13:23:03.879Z,35.78
2018-09-09T13:26:08.883Z,35.94
2018-09-09T13:29:13.887Z,36.01
2018-09-09T13:32:19.068Z,36.33
2018-09-09T13:35:23.963Z,36.63
2018-09-09T13:38:29.021Z,36.67
2018-09-09T13:41:34.180Z,36.69
2018-09-09T13:44:39.857Z,36.80
2018-09-09T13:47:45.206Z,36.76
2018-09-09T13:50:50.162Z,37.04
2018-09-09T13:53:55.232Z,36.03
2018-09-09T13:57:00.301Z,36.27
2018-09-09T14:00:05.512Z,35.52
2018-09-09T14:03:10.556Z,35.15
2018-09-09T14:06:15.474Z,33.74
2018-09-09T14:09:20.422Z,33.55
2018-09-09T14:12:25.320Z,33.51
2018-09-09T14:15:30.365Z,34.33
2018-09-09T14:18:35.363Z,33.48
2018-09-09T14:21:40.310Z,34.60
2018-09-09T14:24:45.258Z,32.31
2018-09-09T14:27:50.299Z,32.81
2018-09-09T14:30:55.508Z,33.03
2018-09-09T14:34:00.545Z,33.04
2018-09-09T14:37:05.522Z,34.32
2018-09-09T14:40:10.537Z,33.10
2018-09-09T14:43:15.592Z,34.32
2018-09-09T14:46:20.558Z,33.62
2018-09-09T14:49:25.486Z,35.25
2018-09-09T14:52:30.581Z,35.78
2018-09-09T14:55:35.426Z,35.45
2018-09-09T14:58:40.534Z,34.36
2018-09-09T15:01:45.429Z,34.84
2018-09-09T15:04:51.295Z,34.93
2018-09-09T15:07:56.506Z,34.19
2018-09-09T15:11:01.392Z,34.43
2018-09-09T15:14:06.627Z,32.72
2018-09-09T15:17:11.623Z,34.22
2018-09-09T15:20:16.676Z,33.27
2018-09-09T15:23:21.666Z,33.62
2018-09-09T15:26:26.971Z,33.25
2018-09-09T15:29:34.835Z,34.11
2018-09-09T15:32:39.866Z,33.80
2018-09-09T15:35:44.799Z,33.82
2018-09-09T15:38:50.096Z,33.00
2018-09-09T15:41:55.082Z,32.82
2018-09-09T15:45:00.128Z,32.45
2018-09-09T15:48:05.557Z,32.89
2018-09-09T15:51:10.601Z,34.68
2018-09-09T15:54:16.095Z,34.16
2018-09-09T16:01:33.204Z,36.33
2018-09-09T16:04:38.221Z,34.63
2018-09-09T16:07:43.192Z,37.57
2018-09-09T16:10:48.166Z,37.07
2018-09-09T16:13:53.161Z,39.24
2018-09-09T16:16:58.350Z,39.88
2018-09-09T16:20:03.352Z,41.85
2018-09-09T16:23:08.320Z,41.16
2018-09-09T16:26:13.244Z,41.75
2018-09-09T16:29:18.232Z,43.84
2018-09-09T16:32:23.232Z,41.57
2018-09-09T16:35:28.602Z,43.92
2018-09-09T16:38:33.635Z,44.05
2018-09-09T16:41:38.813Z,44.39
2018-09-09T16:44:43.697Z,43.51
2018-09-09T16:47:49.026Z,44.45
2018-09-09T16:50:54.850Z,45.40
2018-09-09T16:53:59.800Z,46.31
2018-09-09T16:57:04.815Z,46.65
2018-09-09T17:00:09.791Z,47.97
2018-09-09T17:03:14.773Z,47.69
2018-09-09T17:06:19.703Z,48.28
2018-09-09T17:09:24.551Z,47.89
2018-09-09T17:12:29.536Z,48.52
2018-09-09T17:15:34.416Z,49.99
2018-09-09T17:18:39.378Z,50.89
2018-09-09T17:21:44.263Z,51.04
2018-09-09T17:24:49.200Z,51.60
2018-09-09T17:27:54.180Z,51.26
2018-09-09T17:30:59.311Z,52.61
2018-09-09T17:34:04.262Z,54.64
2018-09-09T17:37:09.224Z,55.32
2018-09-09T17:40:14.211Z,51.62
2018-09-09T17:43:19.190Z,51.78
2018-09-09T17:46:24.273Z,50.55
2018-09-09T17:49:29.221Z,51.44
2018-09-09T17:52:34.806Z,52.60
2018-09-09T17:55:39.765Z,53.50
2018-09-09T17:58:44.695Z,55.66
2018-09-09T18:01:49.727Z,56.14
2018-09-09T18:04:54.563Z,56.91
2018-09-09T18:07:59.441Z,58.04
2018-09-09T18:11:04.653Z,58.08
2018-09-09T18:14:09.453Z,58.41
2018-09-09T18:17:27.974Z,59.64
2018-09-09T18:20:34.446Z,58.26
2018-09-09T18:23:39.414Z,58.65
2018-09-09T18:26:44.976Z,60.35
2018-09-09T18:29:49.971Z,60.90
2018-09-09T18:32:54.858Z,61.06
2018-09-09T18:36:03.989Z,61.67
2018-09-09T18:39:10.704Z,62.97
2018-09-09T18:42:26.415Z,62.70
2018-09-09T18:45:31.376Z,61.74
2018-09-09T18:48:37.071Z,61.53
2018-09-09T18:51:42.154Z,61.07
2018-09-09T18:54:48.290Z,62.48
2018-09-09T18:57:53.647Z,64.24
2018-09-09T19:00:58.606Z,64.34
2018-09-09T19:04:03.791Z,65.10
2018-09-09T19:07:08.864Z,64.99
2018-09-09T19:10:13.944Z,64.96
2018-09-09T19:13:19.068Z,66.67
2018-09-09T19:16:24.082Z,65.13
2018-09-09T19:19:29.293Z,64.63
2018-09-09T19:22:34.395Z,65.51
2018-09-09T19:25:40.184Z,66.42
2018-09-09T19:28:45.486Z,66.18
2018-09-09T19:31:50.685Z,66.54
2018-09-09T19:34:55.848Z,66.52
2018-09-09T19:38:01.195Z,67.00
2018-09-09T19:41:06.830Z,67.29
2018-09-09T19:44:12.039Z,67.90
2018-09-09T19:47:17.028Z,68.79
2018-09-09T19:50:21.979Z,69.25
2018-09-09T19:53:29.295Z,69.85
2018-09-09T19:56:34.387Z,70.06
2018-09-09T19:59:39.404Z,71.20
2018-09-09T20:02:44.593Z,70.38
2018-09-09T20:05:51.004Z,69.36
2018-09-09T20:08:56.155Z,69.87
2018-09-09T20:12:01.607Z,68.90
2018-09-09T20:15:06.981Z,68.58
2018-09-09T20:18:12.234Z,68.63
2018-09-09T20:21:17.480Z,70.35
2018-09-09T20:24:22.940Z,72.20
2018-09-09T20:27:28.040Z,71.48
2018-09-09T20:30:33.383Z,72.77
2018-09-09T20:33:38.600Z,73.20
2018-09-09T20:36:43.816Z,73.28
2018-09-09T20:39:49.715Z,73.77
2018-09-09T20:42:54.812Z,73.51
2018-09-09T20:45:59.929Z,73.14
2018-09-09T20:49:04.947Z,74.07
2018-09-09T20:52:10.028Z,74.89
2018-09-09T20:55:14.952Z,73.76
2018-09-09T20:58:19.993Z,74.57
2018-09-09T21:01:25.209Z,75.36
2018-09-09T21:04:30.384Z,75.56
2018-09-09T21:07:35.423Z,76.84
2018-09-09T21:10:40.360Z,77.67
2018-09-09T21:13:46.070Z,78.68
2018-09-09T21:16:50.912Z,79.11
2018-09-09T21:19:55.796Z,79.27
2018-09-09T21:23:00.699Z,80.24
2018-09-09T21:26:06.371Z,80.20
2018-09-09T21:29:11.292Z,80.68
2018-09-09T21:32:16.557Z,80.06
2018-09-09T21:35:21.693Z,80.64
2018-09-09T21:38:26.593Z,81.46
2018-09-09T21:41:31.463Z,80.40
2018-09-09T21:44:36.359Z,80.89
2018-09-09T21:47:41.365Z,81.03
2018-09-09T21:50:46.288Z,81.40
2018-09-09T21:53:51.168Z,82.31
2018-09-09T21:56:56.995Z,82.62
2018-09-09T22:00:02.876Z,82.44
2018-09-09T22:03:07.969Z,83.02
2018-09-09T22:06:12.866Z,83.25
2018-09-09T22:09:17.789Z,82.93
2018-09-09T22:12:22.758Z,82.25
2018-09-09T22:15:27.654Z,82.91
2018-09-09T22:18:32.564Z,83.51
2018-09-09T22:21:37.473Z,83.87
2018-09-09T22:24:42.337Z,83.31
2018-09-09T22:27:47.320Z,81.66
2018-09-09T22:30:52.191Z,81.92
2018-09-09T22:33:57.219Z,82.90
2018-09-09T22:37:02.049Z,84.24
2018-09-09T22:40:07.030Z,84.71
2018-09-09T22:43:11.875Z,83.79
2018-09-09T22:46:16.678Z,84.21
2018-09-09T22:49:21.602Z,83.95
2018-09-09T22:52:26.466Z,85.23
2018-09-09T22:55:31.333Z,84.47
2018-09-09T22:58:36.176Z,85.09
2018-09-09T23:01:41.148Z,84.91
2018-09-09T23:04:46.021Z,85.06
2018-09-09T23:07:50.906Z,85.20
2018-09-09T23:10:55.809Z,85.41
2018-09-09T23:14:00.685Z,85.65
2018-09-09T23:17:05.580Z,85.20
2018-09-09T23:20:10.429Z,85.89
2018-09-09T23:23:15.326Z,86.05
2018-09-09T23:26:20.162Z,85.38
2018-09-09T23:29:25.009Z,86.60
2018-09-09T23:32:29.856Z,86.29
2018-09-09T23:35:34.680Z,87.30
2018-09-09T23:38:39.595Z,87.28
2018-09-09T23:41:44.378Z,87.84
2018-09-09T23:44:49.426Z,88.68
2018-09-09T23:47:54.285Z,88.53
2018-09-09T23:50:59.123Z,89.17
2018-09-09T23:54:04.004Z,88.90
2018-09-09T23:57:08.888Z,88.75
